Beaver Creek, Illinois
Current Conditions -  °F | °C
As of 5:35 AM on Saturday 20 Dec 2014 (Local Time) from K3LF Reporting Station
Overcast Overcast  
Wind Chill:   Ceiling: 2700
Heat Index:   Visibility: 7mi
Dew Point: -4°   Wind: 3mph
Humidity: 80%   Direction: 100°E
Pressure: 30.25"   Gusts: NA
Location:  38.895°N, 89.397°W
Report Text: K3LF 201135Z AUTO 10003KT 7SM BKN027 OVC060 00/M04 A3025 RMK AO2 T10051036
Loading
Personal Weather Stations






























Interactive Weather Map New forecast layout! Learn more

10-Day Weather Forecast

Advertisements
Track Severe Weather on mobile